Time;durP1;ratioP1;P1;durP2;ratioP2;P2;SDS_P1;SDS_P2;PMS_P1;PMS_P2;Temp;Humidity;BMP_temperature;BMP_pressure;BME280_temperature;BME280_humidity;BME280_pressure;Samples;Min_cycle;Max_cycle;Signal;HPM_P1;HPM_P2
2022/01/28 00:00:12;;;;;;;;;;;;;;;-6.73;76.20;98412.06;5013688;28;20011;-77
2022/01/28 00:05:22;;;;;;;;;;;;;;;-6.59;76.43;98404.25;5040982;28;20404;-78
2022/01/28 00:07:51;;;;;;;;;;;;;;;-6.53;76.32;98401.97;5012049;28;19929;-77
2022/01/28 00:10:17;;;;;;;;;;;;;;;-6.48;77.15;98423.22;5045278;28;20352;-77
2022/01/28 00:37:26;;;;;;;;;;;;;;;-6.64;75.88;98388.91;5045282;28;19940;-78
2022/01/28 00:39:45;;;;;;;;;;;;;;;-6.59;76.40;98379.03;5044016;28;19925;-78
2022/01/28 00:42:10;;;;;;;;;;;;;;;-6.65;75.50;98372.88;5045208;28;19914;-78
2022/01/28 00:44:36;;;;;;;;;;;;;;;-6.67;75.47;98371.13;5013414;28;19917;-78
2022/01/28 00:47:01;;;;;;;;;;;;;;;-6.61;75.98;98367.97;5044968;28;19987;-78
2022/01/28 00:49:27;;;;;;;;;;;;;;;-6.55;75.96;98361.56;5013415;28;19921;-78
2022/01/28 00:51:52;;;;;;;;;;;;;;;-6.63;75.02;98357.84;5045222;28;20008;-79
2022/01/28 00:54:18;;;;;;;;;;;;;;;-6.65;75.07;98345.16;5013264;28;19917;-79
2022/01/28 00:56:44;;;;;;;;;;;;;;;-6.58;75.73;98342.91;5044848;28;19914;-78
2022/01/28 00:59:09;;;;;;;;;;;;;;;-6.63;73.98;98349.41;5045052;28;19944;-78
2022/01/28 01:01:35;;;;;;;;;;;;;;;-6.62;74.29;98341.03;5013860;28;20261;-78
2022/01/28 01:04:00;;;;;;;;;;;;;;;-6.60;75.18;98331.88;5045055;28;19925;-78
2022/01/28 01:06:26;;;;;;;;;;;;;;;-6.55;75.10;98336.34;5013446;28;19940;-78
2022/01/28 01:08:52;;;;;;;;;;;;;;;-6.48;73.97;98332.38;5044708;28;19917;-77
2022/01/28 01:11:20;;;;;;;;;;;;;;;-6.49;74.66;98329.00;5028572;28;19968;-77
2022/01/28 01:13:46;;;;;;;;;;;;;;;-6.49;74.15;98339.09;5044049;28;19917;-77
2022/01/28 01:16:14;;;;;;;;;;;;;;;-6.48;74.12;98327.34;5044649;28;19952;-77
2022/01/28 01:21:18;;;;;;;;;;;;;;;-6.49;74.64;98333.19;5037157;28;20319;-77
2022/01/28 01:23:51;;;;;;;;;;;;;;;-6.49;73.88;98338.25;5012909;28;19917;-78
2022/01/28 01:26:17;;;;;;;;;;;;;;;-6.45;74.85;98323.28;5012577;28;20383;-77
2022/01/28 01:28:43;;;;;;;;;;;;;;;-6.45;73.89;98307.28;5011668;28;19913;-76
2022/01/28 01:31:12;;;;;;;;;;;;;;;-6.35;74.14;98303.47;5028145;28;19922;-77
2022/01/28 01:33:53;;;;;;;;;;;;;;;-6.49;74.28;98298.72;5044097;28;19921;-78
2022/01/28 01:36:19;;;;;;;;;;;;;;;-6.55;74.73;98302.66;5040646;28;19917;-77
2022/01/28 01:38:44;;;;;;;;;;;;;;;-6.49;74.49;98311.34;5016450;28;19924;-77
2022/01/28 01:41:16;;;;;;;;;;;;;;;-6.60;74.92;98299.06;5048536;28;19932;-77
2022/01/28 01:54:19;;;;;;;;;;;;;;;-6.62;74.83;98296.50;5042824;28;19918;-78
2022/01/28 01:56:45;;;;;;;;;;;;;;;-6.69;73.89;98284.44;5048071;28;19956;-78
2022/01/28 01:59:10;;;;;;;;;;;;;;;-6.66;74.68;98285.41;5030968;28;20349;-78
2022/01/28 02:01:36;;;;;;;;;;;;;;;-6.61;74.83;98278.03;5014778;28;20000;-79
2022/01/28 02:04:01;;;;;;;;;;;;;;;-6.62;74.98;98278.00;5030967;28;19917;-78
2022/01/28 02:06:27;;;;;;;;;;;;;;;-6.59;74.42;98270.56;5014498;28;19921;-79
2022/01/28 02:08:52;;;;;;;;;;;;;;;-6.57;75.36;98264.75;5048120;28;19917;-79
2022/01/28 02:11:18;;;;;;;;;;;;;;;-6.48;74.84;98249.13;5016145;28;19913;-78
2022/01/28 02:13:46;;;;;;;;;;;;;;;-6.52;74.26;98243.09;5031108;28;19967;-79
2022/01/28 02:16:12;;;;;;;;;;;;;;;-6.50;75.01;98245.72;5016064;28;19996;-78
2022/01/28 02:18:38;;;;;;;;;;;;;;;-6.49;75.28;98239.84;5015542;28;20466;-79
2022/01/28 02:21:07;;;;;;;;;;;;;;;-6.51;74.19;98238.91;5047394;28;20364;-79
2022/01/28 02:23:32;;;;;;;;;;;;;;;-6.50;74.69;98243.19;5015533;28;20426;-78
2022/01/28 02:25:59;;;;;;;;;;;;;;;-6.54;75.25;98244.72;5047437;28;19914;-78
2022/01/28 02:28:27;;;;;;;;;;;;;;;-6.47;75.91;98233.19;5047039;28;19921;-79
2022/01/28 02:30:52;;;;;;;;;;;;;;;-6.41;75.38;98243.56;5030523;28;19914;-78
2022/01/28 02:33:21;;;;;;;;;;;;;;;-6.37;74.47;98244.50;5046981;28;20323;-79
2022/01/28 02:35:47;;;;;;;;;;;;;;;-6.34;75.16;98235.41;5046739;28;19959;-79
2022/01/28 02:38:13;;;;;;;;;;;;;;;-6.38;74.69;98231.03;5047337;28;19944;-79
2022/01/28 02:40:42;;;;;;;;;;;;;;;-6.32;75.38;98233.81;5047377;28;19920;-79
2022/01/28 02:45:40;;;;;;;;;;;;;;;-6.45;75.24;98224.91;5015061;28;19925;-80
2022/01/28 02:48:13;;;;;;;;;;;;;;;-6.39;75.22;98221.75;5030136;28;19940;-78
2022/01/28 02:50:47;;;;;;;;;;;;;;;-6.32;74.34;98217.78;5014954;28;19917;-78
2022/01/28 02:53:21;;;;;;;;;;;;;;;-6.31;75.04;98217.88;5014478;28;19917;-78
2022/01/28 02:55:47;;;;;;;;;;;;;;;-6.36;75.55;98216.84;5013398;28;19944;-79
2022/01/28 02:58:22;;;;;;;;;;;;;;;-6.35;75.84;98226.13;5014958;28;19914;-79
2022/01/28 03:00:47;;;;;;;;;;;;;;;-6.24;75.34;98217.28;5014753;28;19921;-80
2022/01/28 03:03:18;;;;;;;;;;;;;;;-6.37;75.20;98216.75;5015105;28;19919;-78
2022/01/28 03:05:43;;;;;;;;;;;;;;;-6.34;75.90;98217.75;5013281;28;19929;-78
2022/01/28 03:08:09;;;;;;;;;;;;;;;-6.32;76.22;98215.25;5000996;28;19972;-78
2022/01/28 03:15:33;;;;;;;;;;;;;;;-6.21;75.88;98197.22;5044714;28;19917;-78
2022/01/28 03:18:15;;;;;;;;;;;;;;;-6.17;75.83;98196.53;4999948;28;19913;-78
2022/01/28 03:20:44;;;;;;;;;;;;;;;-6.21;75.60;98189.66;5021981;28;20382;-78
2022/01/28 03:23:10;;;;;;;;;;;;;;;-6.21;75.43;98178.69;5009442;28;20373;-78
2022/01/28 03:25:41;;;;;;;;;;;;;;;-6.19;75.72;98177.94;5026418;28;20013;-78
2022/01/28 03:28:08;;;;;;;;;;;;;;;-6.20;76.26;98162.75;5023281;28;20019;-78
2022/01/28 03:30:33;;;;;;;;;;;;;;;-6.12;76.22;98168.09;5044166;28;20020;-77
2022/01/28 03:32:59;;;;;;;;;;;;;;;-6.11;75.36;98164.75;5045319;28;19921;-77
2022/01/28 03:35:24;;;;;;;;;;;;;;;-6.09;75.38;98168.19;5013082;28;19913;-77
2022/01/28 03:37:58;;;;;;;;;;;;;;;-6.06;75.09;98158.22;5014497;28;19917;-78
2022/01/28 03:40:24;;;;;;;;;;;;;;;-6.21;75.04;98158.50;5014272;28;19924;-79
2022/01/28 03:42:50;;;;;;;;;;;;;;;-6.17;75.88;98156.16;5012479;28;19913;-79
2022/01/28 03:45:15;;;;;;;;;;;;;;;-6.13;75.32;98151.25;5013108;28;20423;-78
2022/01/28 03:47:41;;;;;;;;;;;;;;;-6.18;75.05;98149.41;5012714;28;19975;-77
2022/01/28 03:50:06;;;;;;;;;;;;;;;-6.17;75.24;98148.59;5012961;28;19940;-77
2022/01/28 03:52:32;;;;;;;;;;;;;;;-6.16;75.79;98145.25;5012789;28;19960;-78
2022/01/28 03:54:57;;;;;;;;;;;;;;;-6.17;75.52;98138.50;5012587;28;20288;-78
2022/01/28 03:57:23;;;;;;;;;;;;;;;-6.21;75.91;98139.19;5011583;28;20331;-76
2022/01/28 03:59:48;;;;;;;;;;;;;;;-6.10;75.84;98142.09;5012275;28;19917;-76
2022/01/28 04:02:19;;;;;;;;;;;;;;;-6.09;76.54;98143.84;5013157;28;19968;-77
2022/01/28 04:12:47;;;;;;;;;;;;;;;-6.19;76.52;98142.59;5011892;28;20371;-76
2022/01/28 04:17:48;;;;;;;;;;;;;;;-6.18;76.53;98149.41;5011504;28;19972;-77
2022/01/28 04:20:13;;;;;;;;;;;;;;;-6.22;76.62;98139.13;5011276;28;19953;-77
2022/01/28 04:22:39;;;;;;;;;;;;;;;-6.18;76.86;98139.31;5012237;28;19924;-76
2022/01/28 04:25:05;;;;;;;;;;;;;;;-6.13;76.29;98142.00;5011869;28;20351;-76
2022/01/28 04:27:30;;;;;;;;;;;;;;;-6.15;77.49;98139.41;4994780;28;19967;-77
2022/01/28 04:29:55;;;;;;;;;;;;;;;-6.17;76.94;98135.97;5011209;28;19921;-77
2022/01/28 04:32:23;;;;;;;;;;;;;;;-6.08;78.16;98134.59;5044245;28;19918;-78
2022/01/28 04:34:48;;;;;;;;;;;;;;;-6.15;77.92;98129.31;5044628;28;19913;-77
2022/01/28 04:42:42;;;;;;;;;;;;;;;-6.02;78.29;98129.75;5040841;28;19917;-77
2022/01/28 04:45:26;;;;;;;;;;;;;;;-6.02;78.20;98119.66;5012938;28;19922;-77
2022/01/28 04:48:13;;;;;;;;;;;;;;;-5.99;78.58;98114.72;5039359;28;19921;-76
2022/01/28 04:50:51;;;;;;;;;;;;;;;-5.92;78.35;98121.69;5012359;28;20023;-78
2022/01/28 05:01:01;;;;;;;;;;;;;;;-5.97;78.02;98113.09;5012146;28;20020;-78
2022/01/28 05:27:36;;;;;;;;;;;;;;;-5.85;78.23;98110.13;5016218;28;19928;-79
2022/01/28 05:30:02;;;;;;;;;;;;;;;-5.80;78.82;98111.16;5045645;28;20039;-77
2022/01/28 05:32:27;;;;;;;;;;;;;;;-5.76;78.57;98111.31;5048210;28;20004;-77
2022/01/28 05:34:53;;;;;;;;;;;;;;;-5.81;78.08;98104.41;5031246;28;19917;-78
2022/01/28 05:37:18;;;;;;;;;;;;;;;-5.85;77.76;98103.41;5016396;28;19913;-78
2022/01/28 05:39:44;;;;;;;;;;;;;;;-5.81;78.75;98104.41;5048224;28;19921;-81
2022/01/28 05:42:09;;;;;;;;;;;;;;;-5.82;78.24;98093.41;5049145;28;20373;-81
2022/01/28 05:44:35;;;;;;;;;;;;;;;-5.88;79.03;98093.19;5016336;28;19917;-76
2022/01/28 05:47:03;;;;;;;;;;;;;;;-5.84;79.55;98089.13;5016740;28;19924;-81
2022/01/28 05:49:29;;;;;;;;;;;;;;;-5.84;79.39;98092.50;5047883;28;19921;-78
2022/01/28 05:51:54;;;;;;;;;;;;;;;-5.85;79.25;98092.47;5031604;28;19940;-78
2022/01/28 05:54:20;;;;;;;;;;;;;;;-5.83;79.85;98089.16;5016150;28;19957;-76
2022/01/28 05:56:45;;;;;;;;;;;;;;;-5.85;79.57;98092.47;5015708;28;20403;-78
2022/01/28 05:59:11;;;;;;;;;;;;;;;-5.85;79.57;98082.38;5015729;28;19917;-78
2022/01/28 06:01:36;;;;;;;;;;;;;;;-5.81;79.94;98081.66;5047681;28;20285;-77
2022/01/28 06:04:02;;;;;;;;;;;;;;;-5.84;79.09;98073.97;5047741;28;19917;-82
2022/01/28 06:06:28;;;;;;;;;;;;;;;-5.71;80.20;98063.50;5030968;28;19968;-78
2022/01/28 06:08:54;;;;;;;;;;;;;;;-5.74;79.91;98076.00;5015212;28;20400;-78
2022/01/28 06:11:19;;;;;;;;;;;;;;;-5.77;79.49;98079.31;5047159;28;19927;-78
2022/01/28 06:13:45;;;;;;;;;;;;;;;-5.74;80.28;98066.75;5015058;28;20299;-78
2022/01/28 06:16:11;;;;;;;;;;;;;;;-5.76;79.38;98077.63;5030182;28;20297;-77
2022/01/28 06:18:36;;;;;;;;;;;;;;;-5.78;80.27;98075.03;5013946;28;19975;-79
2022/01/28 06:21:02;;;;;;;;;;;;;;;-5.78;80.24;98064.94;5030607;28;20059;-77
2022/01/28 06:23:28;;;;;;;;;;;;;;;-5.72;80.83;98069.34;5029233;28;20407;-78
2022/01/28 06:25:53;;;;;;;;;;;;;;;-5.71;80.62;98059.28;5015476;28;19948;-77
2022/01/28 06:28:19;;;;;;;;;;;;;;;-5.73;80.84;98063.41;5014748;28;19921;-78
2022/01/28 06:30:44;;;;;;;;;;;;;;;-5.66;80.54;98060.31;5014703;28;20346;-78
2022/01/28 06:33:11;;;;;;;;;;;;;;;-5.57;81.37;98061.44;5015028;28;19917;-77
2022/01/28 06:35:36;;;;;;;;;;;;;;;-5.55;80.69;98062.31;5029812;28;19914;-78
2022/01/28 06:38:01;;;;;;;;;;;;;;;-5.60;80.54;98056.25;5013271;28;20353;-78
2022/01/28 06:40:27;;;;;;;;;;;;;;;-5.51;81.07;98054.03;5014395;28;19917;-77
2022/01/28 06:42:52;;;;;;;;;;;;;;;-5.51;80.15;98059.09;5014536;28;19923;-77
2022/01/28 06:45:18;;;;;;;;;;;;;;;-5.53;80.30;98050.63;5013425;28;19963;-78
2022/01/28 06:47:43;;;;;;;;;;;;;;;-5.51;80.68;98059.09;5014662;28;20419;-77
2022/01/28 06:50:09;;;;;;;;;;;;;;;-5.55;80.80;98050.53;5047091;28;20388;-78
2022/01/28 06:52:35;;;;;;;;;;;;;;;-5.50;80.91;98050.69;5046852;28;19976;-79
2022/01/28 06:55:03;;;;;;;;;;;;;;;-5.45;81.05;98054.22;5030403;28;20012;-79
2022/01/28 06:57:29;;;;;;;;;;;;;;;-5.44;81.01;98051.78;5029874;28;19923;-79
2022/01/28 06:59:55;;;;;;;;;;;;;;;-5.39;81.36;98052.78;5015311;28;20327;-81
2022/01/28 07:02:20;;;;;;;;;;;;;;;-5.24;81.47;98049.88;5029266;28;20012;-78
2022/01/28 07:04:45;;;;;;;;;;;;;;;-5.18;80.95;98059.31;5046678;28;20023;-78
2022/01/28 07:07:11;;;;;;;;;;;;;;;-5.24;80.43;98047.34;5013321;28;20012;-77
2022/01/28 07:09:36;;;;;;;;;;;;;;;-5.26;80.40;98050.66;5046164;28;19917;-77
2022/01/28 07:12:02;;;;;;;;;;;;;;;-5.19;80.90;98050.88;5030503;28;19957;-80
2022/01/28 07:14:28;;;;;;;;;;;;;;;-5.22;80.59;98052.47;5046417;28;19962;-77
2022/01/28 07:16:53;;;;;;;;;;;;;;;-5.18;80.95;98051.75;5045962;28;20017;-81
2022/01/28 07:19:19;;;;;;;;;;;;;;;-5.22;80.73;98058.41;5013390;28;19920;-80
2022/01/28 07:21:44;;;;;;;;;;;;;;;-5.26;80.99;98045.59;5013199;28;19976;-77
2022/01/28 07:24:10;;;;;;;;;;;;;;;-5.23;81.76;98044.00;5046232;28;19920;-78
2022/01/28 07:26:35;;;;;;;;;;;;;;;-5.14;81.51;98051.03;5014419;28;19918;-79
2022/01/28 07:29:01;;;;;;;;;;;;;;;-5.14;81.56;98046.81;5014275;28;20024;-77
2022/01/28 07:31:26;;;;;;;;;;;;;;;-4.95;82.23;98040.72;5046256;28;19918;-79
2022/01/28 07:33:52;;;;;;;;;;;;;;;-4.89;81.98;98042.56;5029270;28;19913;-79
2022/01/28 07:36:17;;;;;;;;;;;;;;;-4.84;81.19;98045.22;5029458;28;19925;-79
2022/01/28 07:38:43;;;;;;;;;;;;;;;-4.79;81.48;98048.75;5046401;28;19952;-77
2022/01/28 07:41:09;;;;;;;;;;;;;;;-4.81;80.95;98043.66;5014297;28;19917;-78
2022/01/28 07:43:37;;;;;;;;;;;;;;;-4.86;80.73;98042.63;5012797;28;19959;-78
2022/01/28 07:46:03;;;;;;;;;;;;;;;-4.78;81.17;98045.41;5046408;28;20419;-77
2022/01/28 07:48:29;;;;;;;;;;;;;;;-4.73;80.76;98048.91;5013872;28;19924;-83
2022/01/28 07:50:54;;;;;;;;;;;;;;;-4.68;81.70;98045.72;5045283;28;19917;-77
2022/01/28 07:53:20;;;;;;;;;;;;;;;-4.64;81.20;98041.59;5014188;28;19917;-76
2022/01/28 07:55:45;;;;;;;;;;;;;;;-4.65;81.36;98048.34;5045701;28;20363;-79
2022/01/28 07:58:11;;;;;;;;;;;;;;;-4.64;81.18;98037.41;5045760;28;20529;-78
2022/01/28 08:00:37;;;;;;;;;;;;;;;-4.64;81.02;98047.53;5028724;28;19943;-82
2022/01/28 08:03:02;;;;;;;;;;;;;;;-4.66;80.24;98051.69;5045238;28;19913;-80
2022/01/28 08:05:28;;;;;;;;;;;;;;;-4.67;81.19;98039.88;5013465;28;20015;-79
2022/01/28 08:07:53;;;;;;;;;;;;;;;-4.73;81.13;98044.72;5013528;28;19921;-79
2022/01/28 08:10:19;;;;;;;;;;;;;;;-4.68;81.32;98043.19;5013912;28;19925;-83
2022/01/28 08:12:45;;;;;;;;;;;;;;;-4.59;81.80;98032.47;5045580;28;19944;-77
2022/01/28 08:15:11;;;;;;;;;;;;;;;-4.57;81.62;98047.72;5013659;28;19952;-78
2022/01/28 08:17:36;;;;;;;;;;;;;;;-4.63;80.77;98049.25;5013641;28;20442;-77
2022/01/28 08:20:02;;;;;;;;;;;;;;;-4.65;81.47;98038.22;5045117;28;20003;-78
2022/01/28 08:22:27;;;;;;;;;;;;;;;-4.63;81.17;98041.66;5028529;28;19917;-81
2022/01/28 08:24:56;;;;;;;;;;;;;;;-4.62;80.83;98043.38;5044785;28;19917;-78
2022/01/28 08:27:21;;;;;;;;;;;;;;;-4.58;81.41;98040.91;5013492;28;19940;-78
2022/01/28 08:29:47;;;;;;;;;;;;;;;-4.55;81.44;98036.81;5012794;28;19921;-79
2022/01/28 08:32:12;;;;;;;;;;;;;;;-4.52;81.78;98028.47;5013139;28;19920;-80
2022/01/28 08:34:38;;;;;;;;;;;;;;;-4.45;81.71;98032.88;5027999;28;19917;-77
2022/01/28 08:37:04;;;;;;;;;;;;;;;-4.37;81.49;98026.38;5044750;28;19914;-83
2022/01/28 08:39:31;;;;;;;;;;;;;;;-4.27;82.36;98025.81;5044601;28;20291;-79
2022/01/28 08:41:56;;;;;;;;;;;;;;;-4.16;82.46;98016.84;5045354;28;19913;-80
2022/01/28 08:44:22;;;;;;;;;;;;;;;-4.15;81.10;98023.63;5045082;28;19924;-78
2022/01/28 08:46:47;;;;;;;;;;;;;;;-4.13;81.15;98016.06;5014624;28;19913;-82
2022/01/28 08:49:13;;;;;;;;;;;;;;;-4.11;81.22;98017.81;5049950;28;20011;-79
2022/01/28 08:51:38;;;;;;;;;;;;;;;-4.14;81.47;98010.13;5049331;28;20376;-80
2022/01/28 08:54:04;;;;;;;;;;;;;;;-4.15;81.11;98010.09;5032967;28;20245;-82
2022/01/28 08:56:30;;;;;;;;;;;;;;;-4.12;81.77;98015.25;5032731;28;20403;-82
2022/01/28 08:58:55;;;;;;;;;;;;;;;-4.10;81.93;98003.47;5032359;28;19917;-78
2022/01/28 09:01:21;;;;;;;;;;;;;;;-4.09;81.97;98016.19;5016297;28;20402;-77
2022/01/28 09:03:47;;;;;;;;;;;;;;;-4.11;82.40;98002.63;5032276;28;20008;-78
2022/01/28 09:06:12;;;;;;;;;;;;;;;-4.07;82.50;98003.56;5017730;28;19925;-82
2022/01/28 09:08:39;;;;;;;;;;;;;;;-4.02;83.26;98001.16;5048414;28;19926;-77
2022/01/28 09:13:55;;;;;;;;;;;;;;;-3.97;83.10;97995.41;5015811;28;19917;-79
2022/01/28 09:16:21;;;;;;;;;;;;;;;-3.93;83.20;97993.81;5032214;28;19936;-79
2022/01/28 09:18:47;;;;;;;;;;;;;;;-3.96;83.09;97984.44;5016551;28;20376;-79
2022/01/28 09:21:12;;;;;;;;;;;;;;;-3.93;82.90;97988.75;5016390;28;19957;-78
2022/01/28 09:23:38;;;;;;;;;;;;;;;-3.94;82.92;97989.53;5031413;28;20304;-77
2022/01/28 09:26:03;;;;;;;;;;;;;;;-3.96;82.98;97976.84;5048263;28;20367;-78
2022/01/28 09:28:29;;;;;;;;;;;;;;;-3.92;82.91;97983.72;5015977;28;20427;-79
2022/01/28 09:30:57;;;;;;;;;;;;;;;-3.89;82.67;97985.47;5015982;28;20305;-78
2022/01/28 09:33:22;;;;;;;;;;;;;;;-3.92;83.19;97987.91;5015918;28;19984;-78
2022/01/28 09:35:48;;;;;;;;;;;;;;;-3.89;82.22;97990.53;5015999;28;19953;-79
2022/01/28 09:38:14;;;;;;;;;;;;;;;-3.90;82.49;97983.72;5014727;28;19921;-78
2022/01/28 09:40:39;;;;;;;;;;;;;;;-3.86;82.30;97972.88;5016006;28;19913;-82
2022/01/28 09:43:07;;;;;;;;;;;;;;;-3.79;82.83;97977.28;5047684;28;20365;-78
2022/01/28 09:45:33;;;;;;;;;;;;;;;-3.79;81.75;97979.81;5015319;28;19935;-78
2022/01/28 09:47:59;;;;;;;;;;;;;;;-3.79;82.36;97976.44;5047807;28;20023;-79
2022/01/28 09:50:26;;;;;;;;;;;;;;;-3.72;81.77;97973.22;5048263;28;19917;-78
2022/01/28 09:52:51;;;;;;;;;;;;;;;-3.72;81.39;97970.69;5016224;28;20003;-78
2022/01/28 09:55:18;;;;;;;;;;;;;;;-3.73;81.84;97969.81;5048316;28;19921;-77
2022/01/28 09:57:45;;;;;;;;;;;;;;;-3.77;80.76;97968.03;5047263;28;20384;-78
2022/01/28 10:00:11;;;;;;;;;;;;;;;-3.84;80.37;97961.13;5015900;28;19920;-78
2022/01/28 10:02:49;;;;;;;;;;;;;;;-3.80;82.07;97957.84;5015973;28;19917;-78
2022/01/28 10:05:18;;;;;;;;;;;;;;;-3.74;81.45;97957.13;5015552;28;20028;-78
2022/01/28 10:08:02;;;;;;;;;;;;;;;-3.73;81.63;97949.56;5015772;28;19922;-78
2022/01/28 10:10:39;;;;;;;;;;;;;;;-3.69;82.04;97953.88;5047363;28;19924;-78
2022/01/28 10:13:09;;;;;;;;;;;;;;;-3.62;82.21;97948.16;5047143;28;19935;-78
2022/01/28 10:15:34;;;;;;;;;;;;;;;-3.60;82.65;97945.66;5030906;28;19917;-80
2022/01/28 10:18:00;;;;;;;;;;;;;;;-3.55;82.47;97948.28;5014070;28;20291;-78
2022/01/28 10:20:26;;;;;;;;;;;;;;;-3.52;81.96;97941.63;5047113;28;19924;-77
2022/01/28 10:22:51;;;;;;;;;;;;;;;-3.44;82.33;97936.72;5015136;28;19913;-78
2022/01/28 10:25:23;;;;;;;;;;;;;;;-3.46;82.04;97938.38;5047218;28;19922;-78
2022/01/28 10:27:55;;;;;;;;;;;;;;;-3.48;82.46;97934.94;5015278;28;19944;-78
2022/01/28 10:30:21;;;;;;;;;;;;;;;-3.49;81.24;97943.34;5013739;28;19917;-77
2022/01/28 10:32:46;;;;;;;;;;;;;;;-3.55;81.32;97931.41;5013688;28;19917;-78
2022/01/28 10:35:12;;;;;;;;;;;;;;;-3.56;80.85;97936.44;5030031;28;19918;-77
2022/01/28 10:37:37;;;;;;;;;;;;;;;-3.61;79.99;97934.66;5047252;28;20380;-78
2022/01/28 10:40:06;;;;;;;;;;;;;;;-3.61;80.19;97943.94;5046799;28;20399;-79
2022/01/28 10:42:50;;;;;;;;;;;;;;;-3.57;80.06;97938.13;5013665;28;20419;-79
2022/01/28 10:45:18;;;;;;;;;;;;;;;-3.55;80.76;97943.22;5013852;28;20303;-80
2022/01/28 10:47:47;;;;;;;;;;;;;;;-3.54;80.31;97938.19;5030056;28;19925;-77
2022/01/28 10:50:19;;;;;;;;;;;;;;;-3.50;81.06;97945.03;5030060;28;19917;-78
2022/01/28 10:52:48;;;;;;;;;;;;;;;-3.44;80.66;97946.84;5015275;28;20415;-78
2022/01/28 10:55:19;;;;;;;;;;;;;;;-3.61;79.49;97944.78;5029925;28;20289;-77
2022/01/28 10:57:57;;;;;;;;;;;;;;;-3.65;79.79;97947.22;5046417;28;19921;-79
2022/01/28 11:00:25;;;;;;;;;;;;;;;-3.60;80.33;97941.44;5030094;28;19917;-78
2022/01/28 11:02:50;;;;;;;;;;;;;;;-3.53;80.58;97939.03;5046231;28;19913;-77
2022/01/28 11:05:16;;;;;;;;;;;;;;;-3.47;81.32;97934.13;5029802;28;19925;-77
2022/01/28 11:07:42;;;;;;;;;;;;;;;-3.41;81.25;97936.81;5046201;28;19921;-79
2022/01/28 11:10:07;;;;;;;;;;;;;;;-3.41;80.80;97940.19;5012845;28;19933;-80
2022/01/28 11:12:33;;;;;;;;;;;;;;;-3.43;80.91;97939.31;5029768;28;19913;-78
2022/01/28 11:14:58;;;;;;;;;;;;;;;-3.47;80.80;97936.66;5014633;28;19924;-78
2022/01/28 11:17:24;;;;;;;;;;;;;;;-3.47;81.00;97929.06;5045979;28;19913;-77
2022/01/28 11:19:50;;;;;;;;;;;;;;;-3.47;81.00;97939.19;5046092;28;19991;-77
2022/01/28 11:22:20;;;;;;;;;;;;;;;-3.48;80.97;97930.75;5029712;28;19959;-78
2022/01/28 11:24:56;;;;;;;;;;;;;;;-3.45;81.11;97923.19;5029428;28;19971;-77
2022/01/28 11:27:34;;;;;;;;;;;;;;;-3.47;81.45;97929.06;5014086;28;20028;-79
2022/01/28 11:30:18;;;;;;;;;;;;;;;-3.58;81.29;97927.09;5045444;28;19940;-80
2022/01/28 11:33:04;;;;;;;;;;;;;;;-3.61;80.93;97919.44;5013987;28;19928;-79
2022/01/28 11:35:30;;;;;;;;;;;;;;;-3.60;81.95;97926.22;5013613;28;19917;-77
2022/01/28 11:38:02;;;;;;;;;;;;;;;-3.55;81.46;97913.66;5014369;28;20396;-77
2022/01/28 11:40:27;;;;;;;;;;;;;;;-3.57;81.87;97915.31;5014032;28;19921;-77
2022/01/28 11:43:30;;;;;;;;;;;;;;;-3.60;81.04;97916.09;5029436;28;20353;-83
2022/01/28 11:46:08;;;;;;;;;;;;;;;-3.49;81.82;97920.53;5009016;28;19924;-77
2022/01/28 11:48:52;;;;;;;;;;;;;;;-3.48;81.94;97917.19;5008353;28;20395;-79
2022/01/28 11:51:36;;;;;;;;;;;;;;;-3.45;82.19;97909.66;5046258;28;20299;-79
2022/01/28 11:54:04;;;;;;;;;;;;;;;-3.41;82.25;97916.50;5045880;28;20437;-82
2022/01/28 11:56:30;;;;;;;;;;;;;;;-3.43;81.10;97919.03;5014301;28;19994;-77
2022/01/28 11:59:02;;;;;;;;;;;;;;;-3.43;80.96;97908.88;5014178;28;20408;-81
2022/01/28 12:01:40;;;;;;;;;;;;;;;-3.42;81.48;97904.66;5045753;28;19917;-77
2022/01/28 12:04:25;;;;;;;;;;;;;;;-3.45;81.33;97907.13;5029378;28;20016;-78
2022/01/28 12:07:10;;;;;;;;;;;;;;;-3.39;81.59;97905.59;5014134;28;19928;-81
2022/01/28 12:09:36;;;;;;;;;;;;;;;-3.32;82.32;97909.13;5045154;28;19917;-77
2022/01/28 12:12:02;;;;;;;;;;;;;;;-3.27;82.92;97912.59;5045879;28;20011;-79
2022/01/28 12:14:46;;;;;;;;;;;;;;;-3.27;82.46;97904.16;5045905;28;19921;-76
2022/01/28 12:17:30;;;;;;;;;;;;;;;-3.24;82.94;97907.63;5013724;28;19924;-82
2022/01/28 12:20:31;;;;;;;;;;;;;;;-3.21;81.84;97906.81;5013045;28;19975;-78
2022/01/28 12:23:03;;;;;;;;;;;;;;;-3.17;82.08;97904.38;4990859;28;20044;-81
2022/01/28 12:25:40;;;;;;;;;;;;;;;-3.14;82.11;97901.06;5009741;28;19917;-81
2022/01/28 12:28:12;;;;;;;;;;;;;;;-3.13;82.82;97913.75;5029098;28;20340;-82
2022/01/28 12:30:38;;;;;;;;;;;;;;;-3.13;82.50;97907.84;5028962;28;19917;-78
2022/01/28 12:33:03;;;;;;;;;;;;;;;-3.13;83.04;97903.63;5044823;28;20016;-78
2022/01/28 12:35:29;;;;;;;;;;;;;;;-3.14;82.62;97906.13;5045845;28;19918;-82
2022/01/28 12:38:00;;;;;;;;;;;;;;;-3.15;83.06;97899.34;5045620;28;19914;-82
2022/01/28 12:40:29;;;;;;;;;;;;;;;-3.18;82.41;97907.75;5028817;28;20450;-84
2022/01/28 12:42:54;;;;;;;;;;;;;;;-3.18;82.60;97897.59;5028025;28;19913;-81
2022/01/28 12:45:20;;;;;;;;;;;;;;;-3.21;81.98;97900.06;5045224;28;19966;-78
2022/01/28 12:47:46;;;;;;;;;;;;;;;-3.24;82.58;97897.47;5044559;28;20350;-78
2022/01/28 12:50:12;;;;;;;;;;;;;;;-3.24;83.07;97902.53;5011806;28;19917;-79
2022/01/28 12:52:37;;;;;;;;;;;;;;;-3.21;83.87;97899.19;5044466;28;19968;-78
2022/01/28 12:55:03;;;;;;;;;;;;;;;-3.29;82.65;97898.19;5044683;28;20012;-81
2022/01/28 12:57:29;;;;;;;;;;;;;;;-3.23;83.57;97901.72;5012976;28;19917;-80
2022/01/28 12:59:55;;;;;;;;;;;;;;;-3.21;83.25;97904.28;5045183;28;20296;-81
2022/01/28 13:02:20;;;;;;;;;;;;;;;-3.20;83.33;97896.72;5044571;28;20017;-80
2022/01/28 13:05:00;;;;;;;;;;;;;;;-3.16;82.54;97898.50;5044505;28;19983;-79
2022/01/28 13:10:17;;;;;;;;;;;;;;;-3.17;82.68;97891.69;5012626;28;19917;-78
2022/01/28 13:12:42;;;;;;;;;;;;;;;-3.15;83.33;97892.59;5028336;28;19923;-79
2022/01/28 13:15:11;;;;;;;;;;;;;;;-3.16;82.89;97888.34;5044725;28;20432;-79
2022/01/28 13:17:38;;;;;;;;;;;;;;;-3.20;82.33;97896.72;5044684;28;19921;-79
2022/01/28 13:20:04;;;;;;;;;;;;;;;-3.21;82.68;97894.97;5027250;28;19917;-77
2022/01/28 13:22:30;;;;;;;;;;;;;;;-3.24;82.07;97889.88;5027625;28;20027;-79
2022/01/28 13:24:56;;;;;;;;;;;;;;;-3.26;82.11;97883.88;5044028;28;19956;-81
2022/01/28 13:27:22;;;;;;;;;;;;;;;-3.30;82.09;97893.94;5027484;28;19925;-77
2022/01/28 13:29:51;;;;;;;;;;;;;;;-3.31;81.86;97890.53;5012441;28;19976;-80
2022/01/28 13:32:23;;;;;;;;;;;;;;;-3.29;82.11;97891.44;5043527;28;20010;-77
2022/01/28 13:34:49;;;;;;;;;;;;;;;-3.32;82.03;97887.16;5016270;28;19921;-79
2022/01/28 13:37:34;;;;;;;;;;;;;;;-3.34;82.39;97887.97;5030990;28;19920;-77
2022/01/28 13:40:00;;;;;;;;;;;;;;;-3.30;82.88;97886.31;5015590;28;20387;-77
2022/01/28 13:42:25;;;;;;;;;;;;;;;-3.28;82.90;97887.22;5014828;28;19964;-80
2022/01/28 13:44:51;;;;;;;;;;;;;;;-3.29;82.11;97883.00;5031371;28;19953;-76
2022/01/28 13:47:17;;;;;;;;;;;;;;;-3.28;82.25;97882.16;5016099;28;20019;-80
2022/01/28 13:49:43;;;;;;;;;;;;;;;-3.31;82.12;97882.94;5047837;28;19925;-80
2022/01/28 13:52:09;;;;;;;;;;;;;;;-3.30;82.88;97883.78;5047706;28;19936;-78
2022/01/28 13:54:34;;;;;;;;;;;;;;;-3.32;82.46;97888.84;5015489;28;19917;-79
2022/01/28 13:57:00;;;;;;;;;;;;;;;-3.28;81.97;97880.47;5015398;28;19913;-78
2022/01/28 13:59:28;;;;;;;;;;;;;;;-3.27;82.97;97874.56;5030197;28;19966;-78
2022/01/28 14:01:56;;;;;;;;;;;;;;;-3.24;82.98;97879.72;5047070;28;19914;-81
2022/01/28 14:04:22;;;;;;;;;;;;;;;-3.27;81.90;97881.31;5029885;28;19921;-78
2022/01/28 14:06:48;;;;;;;;;;;;;;;-3.29;82.53;97873.69;5015494;28;20364;-78
2022/01/28 14:09:23;;;;;;;;;;;;;;;-3.27;83.28;97874.56;5030241;28;19963;-77
2022/01/28 14:11:52;;;;;;;;;;;;;;;-3.24;82.95;97873.81;5015953;28;19918;-82
2022/01/28 14:14:48;;;;;;;;;;;;;;;-3.27;83.26;97874.56;5047467;28;20390;-80
2022/01/28 14:17:14;;;;;;;;;;;;;;;-3.28;82.98;97877.09;5010752;28;19926;-78
2022/01/28 14:19:41;;;;;;;;;;;;;;;-3.33;82.74;97874.44;5046923;28;19917;-77
2022/01/28 14:22:08;;;;;;;;;;;;;;;-3.32;83.34;97863.47;5015276;28;19920;-77
2022/01/28 14:24:35;;;;;;;;;;;;;;;-3.30;83.26;97869.44;5030422;28;19921;-78
2022/01/28 14:32:08;;;;;;;;;;;;;;;-3.45;82.99;97864.03;5045131;28;19987;-78
2022/01/28 14:34:33;;;;;;;;;;;;;;;-3.45;83.58;97867.41;5030291;28;19913;-78
2022/01/28 14:36:59;;;;;;;;;;;;;;;-3.42;83.69;97859.88;5015624;28;19918;-78